sensor_id;sensor_type;location;lat;lon;timestamp;P1;durP1;ratioP1;P2;durP2;ratioP2
29184;SDS011;16233;47.964;-3.842;2022-08-19T00:00:47;5.65;;;3.03;;
29184;SDS011;16233;47.964;-3.842;2022-08-19T00:02:48;5.35;;;3.60;;
29184;SDS011;16233;47.964;-3.842;2022-08-19T00:04:49;3.80;;;3.17;;
29184;SDS011;16233;47.964;-3.842;2022-08-19T00:06:50;6.35;;;3.17;;
29184;SDS011;16233;47.964;-3.842;2022-08-19T00:08:51;5.80;;;3.50;;
29184;SDS011;16233;47.964;-3.842;2022-08-19T00:10:52;5.43;;;3.55;;
29184;SDS011;16233;47.964;-3.842;2022-08-19T00:12:53;7.65;;;3.70;;
29184;SDS011;16233;47.964;-3.842;2022-08-19T00:14:54;7.30;;;3.60;;
29184;SDS011;16233;47.964;-3.842;2022-08-19T00:16:56;5.45;;;3.28;;
29184;SDS011;16233;47.964;-3.842;2022-08-19T00:18:57;5.75;;;4.07;;
29184;SDS011;16233;47.964;-3.842;2022-08-19T00:20:59;6.13;;;3.80;;
29184;SDS011;16233;47.964;-3.842;2022-08-19T00:23:00;11.02;;;3.80;;
29184;SDS011;16233;47.964;-3.842;2022-08-19T00:25:01;9.20;;;4.10;;
29184;SDS011;16233;47.964;-3.842;2022-08-19T00:27:02;6.80;;;4.07;;
29184;SDS011;16233;47.964;-3.842;2022-08-19T00:29:04;7.07;;;3.70;;
29184;SDS011;16233;47.964;-3.842;2022-08-19T00:31:07;6.05;;;4.35;;
29184;SDS011;16233;47.964;-3.842;2022-08-19T00:33:10;9.10;;;4.30;;
29184;SDS011;16233;47.964;-3.842;2022-08-19T00:35:11;7.50;;;4.47;;
29184;SDS011;16233;47.964;-3.842;2022-08-19T00:37:12;6.22;;;4.05;;
29184;SDS011;16233;47.964;-3.842;2022-08-19T00:39:13;7.57;;;4.13;;
29184;SDS011;16233;47.964;-3.842;2022-08-19T00:41:19;11.20;;;4.25;;
29184;SDS011;16233;47.964;-3.842;2022-08-19T00:43:24;7.80;;;4.25;;
29184;SDS011;16233;47.964;-3.842;2022-08-19T00:45:27;9.75;;;4.50;;
29184;SDS011;16233;47.964;-3.842;2022-08-19T00:47:29;9.00;;;4.35;;
29184;SDS011;16233;47.964;-3.842;2022-08-19T00:49:32;7.70;;;3.85;;
29184;SDS011;16233;47.964;-3.842;2022-08-19T00:51:36;8.75;;;4.40;;
29184;SDS011;16233;47.964;-3.842;2022-08-19T00:53:37;13.00;;;3.97;;
29184;SDS011;16233;47.964;-3.842;2022-08-19T00:55:38;10.38;;;4.20;;
29184;SDS011;16233;47.964;-3.842;2022-08-19T00:57:42;7.40;;;4.65;;
29184;SDS011;16233;47.964;-3.842;2022-08-19T00:59:47;7.50;;;4.45;;
29184;SDS011;16233;47.964;-3.842;2022-08-19T01:01:51;7.28;;;4.18;;
29184;SDS011;16233;47.964;-3.842;2022-08-19T01:03:52;8.80;;;3.92;;
29184;SDS011;16233;47.964;-3.842;2022-08-19T01:05:55;7.93;;;3.78;;
29184;SDS011;16233;47.964;-3.842;2022-08-19T01:07:57;14.13;;;4.15;;
29184;SDS011;16233;47.964;-3.842;2022-08-19T01:10:00;9.10;;;4.25;;
29184;SDS011;16233;47.964;-3.842;2022-08-19T01:12:03;10.25;;;3.75;;
29184;SDS011;16233;47.964;-3.842;2022-08-19T01:14:04;10.15;;;3.78;;
29184;SDS011;16233;47.964;-3.842;2022-08-19T01:16:08;4.93;;;3.28;;
29184;SDS011;16233;47.964;-3.842;2022-08-19T01:18:10;8.00;;;3.97;;
29184;SDS011;16233;47.964;-3.842;2022-08-19T01:20:16;5.03;;;3.38;;
29184;SDS011;16233;47.964;-3.842;2022-08-19T01:24:27;10.35;;;4.60;;
29184;SDS011;16233;47.964;-3.842;2022-08-19T01:26:28;12.45;;;4.30;;
29184;SDS011;16233;47.964;-3.842;2022-08-19T01:28:29;10.38;;;3.90;;
29184;SDS011;16233;47.964;-3.842;2022-08-19T01:30:32;10.05;;;4.22;;
29184;SDS011;16233;47.964;-3.842;2022-08-19T01:32:34;13.25;;;4.28;;
29184;SDS011;16233;47.964;-3.842;2022-08-19T01:34:35;12.07;;;4.57;;
29184;SDS011;16233;47.964;-3.842;2022-08-19T01:36:37;8.85;;;4.43;;
29184;SDS011;16233;47.964;-3.842;2022-08-19T01:38:43;9.77;;;4.53;;
29184;SDS011;16233;47.964;-3.842;2022-08-19T01:40:44;10.55;;;3.90;;
29184;SDS011;16233;47.964;-3.842;2022-08-19T01:42:45;11.02;;;3.83;;
29184;SDS011;16233;47.964;-3.842;2022-08-19T01:44:46;5.88;;;3.38;;
29184;SDS011;16233;47.964;-3.842;2022-08-19T01:46:48;11.88;;;3.90;;
29184;SDS011;16233;47.964;-3.842;2022-08-19T01:48:49;7.38;;;3.45;;
29184;SDS011;16233;47.964;-3.842;2022-08-19T01:50:50;11.88;;;3.55;;
29184;SDS011;16233;47.964;-3.842;2022-08-19T01:52:52;8.02;;;3.38;;
29184;SDS011;16233;47.964;-3.842;2022-08-19T01:54:54;9.27;;;3.35;;
29184;SDS011;16233;47.964;-3.842;2022-08-19T01:56:58;9.43;;;3.67;;
29184;SDS011;16233;47.964;-3.842;2022-08-19T01:59:03;12.00;;;3.80;;
29184;SDS011;16233;47.964;-3.842;2022-08-19T02:01:07;11.75;;;3.95;;
29184;SDS011;16233;47.964;-3.842;2022-08-19T02:03:09;9.13;;;3.80;;
29184;SDS011;16233;47.964;-3.842;2022-08-19T02:05:10;8.82;;;3.50;;
29184;SDS011;16233;47.964;-3.842;2022-08-19T02:07:12;10.30;;;3.78;;
29184;SDS011;16233;47.964;-3.842;2022-08-19T02:09:13;11.30;;;4.50;;
29184;SDS011;16233;47.964;-3.842;2022-08-19T02:11:19;10.30;;;3.65;;
29184;SDS011;16233;47.964;-3.842;2022-08-19T02:13:24;10.02;;;4.22;;
29184;SDS011;16233;47.964;-3.842;2022-08-19T02:15:25;8.07;;;3.80;;
29184;SDS011;16233;47.964;-3.842;2022-08-19T02:17:27;9.30;;;3.55;;
29184;SDS011;16233;47.964;-3.842;2022-08-19T02:19:28;5.95;;;3.25;;
29184;SDS011;16233;47.964;-3.842;2022-08-19T02:21:29;6.30;;;3.92;;
29184;SDS011;16233;47.964;-3.842;2022-08-19T02:23:31;10.10;;;4.15;;
29184;SDS011;16233;47.964;-3.842;2022-08-19T02:25:32;11.45;;;3.88;;
29184;SDS011;16233;47.964;-3.842;2022-08-19T02:27:34;14.70;;;3.65;;
29184;SDS011;16233;47.964;-3.842;2022-08-19T02:29:35;9.18;;;3.70;;
29184;SDS011;16233;47.964;-3.842;2022-08-19T02:31:36;11.25;;;3.35;;
29184;SDS011;16233;47.964;-3.842;2022-08-19T02:33:37;8.95;;;3.53;;
29184;SDS011;16233;47.964;-3.842;2022-08-19T02:35:40;6.35;;;3.38;;
29184;SDS011;16233;47.964;-3.842;2022-08-19T02:37:42;12.18;;;3.85;;
29184;SDS011;16233;47.964;-3.842;2022-08-19T02:39:43;9.93;;;3.20;;
29184;SDS011;16233;47.964;-3.842;2022-08-19T02:41:44;10.15;;;3.67;;
29184;SDS011;16233;47.964;-3.842;2022-08-19T02:43:47;9.20;;;3.92;;
29184;SDS011;16233;47.964;-3.842;2022-08-19T02:45:48;8.82;;;4.40;;
29184;SDS011;16233;47.964;-3.842;2022-08-19T02:47:50;12.35;;;4.40;;
29184;SDS011;16233;47.964;-3.842;2022-08-19T02:49:51;9.07;;;3.63;;
29184;SDS011;16233;47.964;-3.842;2022-08-19T02:51:52;16.23;;;3.50;;
29184;SDS011;16233;47.964;-3.842;2022-08-19T02:53:53;8.32;;;3.25;;
29184;SDS011;16233;47.964;-3.842;2022-08-19T02:55:54;12.57;;;4.25;;
29184;SDS011;16233;47.964;-3.842;2022-08-19T02:57:55;9.05;;;3.42;;
29184;SDS011;16233;47.964;-3.842;2022-08-19T02:59:57;9.88;;;3.78;;
29184;SDS011;16233;47.964;-3.842;2022-08-19T03:01:58;9.48;;;3.97;;
29184;SDS011;16233;47.964;-3.842;2022-08-19T03:04:00;10.25;;;3.65;;
29184;SDS011;16233;47.964;-3.842;2022-08-19T03:06:08;11.15;;;3.85;;
29184;SDS011;16233;47.964;-3.842;2022-08-19T03:08:12;15.32;;;4.40;;
29184;SDS011;16233;47.964;-3.842;2022-08-19T03:10:13;8.40;;;4.05;;
29184;SDS011;16233;47.964;-3.842;2022-08-19T03:12:14;8.02;;;3.70;;
29184;SDS011;16233;47.964;-3.842;2022-08-19T03:14:15;14.88;;;4.50;;
29184;SDS011;16233;47.964;-3.842;2022-08-19T03:16:18;6.85;;;3.95;;
29184;SDS011;16233;47.964;-3.842;2022-08-19T03:18:19;11.57;;;4.10;;
29184;SDS011;16233;47.964;-3.842;2022-08-19T03:20:21;9.68;;;4.30;;
29184;SDS011;16233;47.964;-3.842;2022-08-19T03:22:22;11.65;;;4.13;;
29184;SDS011;16233;47.964;-3.842;2022-08-19T03:24:22;14.75;;;4.70;;
29184;SDS011;16233;47.964;-3.842;2022-08-19T03:26:24;13.07;;;4.85;;
29184;SDS011;16233;47.964;-3.842;2022-08-19T03:28:24;12.50;;;4.50;;
29184;SDS011;16233;47.964;-3.842;2022-08-19T03:30:25;13.07;;;4.78;;
29184;SDS011;16233;47.964;-3.842;2022-08-19T03:32:28;10.23;;;4.20;;
29184;SDS011;16233;47.964;-3.842;2022-08-19T03:34:29;14.77;;;5.07;;
29184;SDS011;16233;47.964;-3.842;2022-08-19T03:36:32;10.88;;;4.80;;
29184;SDS011;16233;47.964;-3.842;2022-08-19T03:38:34;16.95;;;4.47;;
29184;SDS011;16233;47.964;-3.842;2022-08-19T03:40:36;16.65;;;4.90;;
29184;SDS011;16233;47.964;-3.842;2022-08-19T03:42:37;11.23;;;4.38;;
29184;SDS011;16233;47.964;-3.842;2022-08-19T03:44:38;13.48;;;4.80;;
29184;SDS011;16233;47.964;-3.842;2022-08-19T03:46:39;12.52;;;4.13;;
29184;SDS011;16233;47.964;-3.842;2022-08-19T03:48:42;17.98;;;4.93;;
29184;SDS011;16233;47.964;-3.842;2022-08-19T03:50:44;15.05;;;4.30;;
29184;SDS011;16233;47.964;-3.842;2022-08-19T03:52:47;18.90;;;4.80;;
29184;SDS011;16233;47.964;-3.842;2022-08-19T03:54:49;12.65;;;4.38;;
29184;SDS011;16233;47.964;-3.842;2022-08-19T03:56:51;15.25;;;4.82;;
29184;SDS011;16233;47.964;-3.842;2022-08-19T03:58:53;14.82;;;4.07;;
29184;SDS011;16233;47.964;-3.842;2022-08-19T04:00:54;16.25;;;4.10;;
29184;SDS011;16233;47.964;-3.842;2022-08-19T04:02:56;9.65;;;4.30;;
29184;SDS011;16233;47.964;-3.842;2022-08-19T04:04:58;13.70;;;3.80;;
29184;SDS011;16233;47.964;-3.842;2022-08-19T04:06:59;14.50;;;4.05;;
29184;SDS011;16233;47.964;-3.842;2022-08-19T04:09:01;16.08;;;4.95;;
29184;SDS011;16233;47.964;-3.842;2022-08-19T04:11:06;13.30;;;3.88;;
29184;SDS011;16233;47.964;-3.842;2022-08-19T04:13:07;7.75;;;3.45;;
29184;SDS011;16233;47.964;-3.842;2022-08-19T04:15:09;8.77;;;2.90;;
29184;SDS011;16233;47.964;-3.842;2022-08-19T04:17:10;10.73;;;3.20;;
29184;SDS011;16233;47.964;-3.842;2022-08-19T04:19:12;11.02;;;4.20;;
29184;SDS011;16233;47.964;-3.842;2022-08-19T04:21:17;7.75;;;3.17;;
29184;SDS011;16233;47.964;-3.842;2022-08-19T04:23:19;9.30;;;3.90;;
29184;SDS011;16233;47.964;-3.842;2022-08-19T04:25:20;9.55;;;3.30;;
29184;SDS011;16233;47.964;-3.842;2022-08-19T04:27:21;10.30;;;3.40;;
29184;SDS011;16233;47.964;-3.842;2022-08-19T04:29:23;13.68;;;3.75;;
29184;SDS011;16233;47.964;-3.842;2022-08-19T04:31:25;9.98;;;3.55;;
29184;SDS011;16233;47.964;-3.842;2022-08-19T04:33:29;16.58;;;4.53;;
29184;SDS011;16233;47.964;-3.842;2022-08-19T04:35:34;13.68;;;4.40;;
29184;SDS011;16233;47.964;-3.842;2022-08-19T04:37:37;11.13;;;4.03;;
29184;SDS011;16233;47.964;-3.842;2022-08-19T04:39:38;11.07;;;3.67;;
29184;SDS011;16233;47.964;-3.842;2022-08-19T04:41:40;16.40;;;3.60;;
29184;SDS011;16233;47.964;-3.842;2022-08-19T04:43:41;13.82;;;3.85;;
29184;SDS011;16233;47.964;-3.842;2022-08-19T04:45:44;22.27;;;4.68;;
29184;SDS011;16233;47.964;-3.842;2022-08-19T04:47:45;16.00;;;3.65;;
29184;SDS011;16233;47.964;-3.842;2022-08-19T04:49:46;15.73;;;3.45;;
29184;SDS011;16233;47.964;-3.842;2022-08-19T04:51:48;14.60;;;3.13;;
29184;SDS011;16233;47.964;-3.842;2022-08-19T04:53:52;14.80;;;3.58;;
29184;SDS011;16233;47.964;-3.842;2022-08-19T04:55:53;10.30;;;3.47;;
29184;SDS011;16233;47.964;-3.842;2022-08-19T04:57:55;20.35;;;3.28;;
29184;SDS011;16233;47.964;-3.842;2022-08-19T04:59:56;14.88;;;3.88;;
29184;SDS011;16233;47.964;-3.842;2022-08-19T05:01:57;6.47;;;2.78;;
29184;SDS011;16233;47.964;-3.842;2022-08-19T05:03:58;11.88;;;2.92;;
29184;SDS011;16233;47.964;-3.842;2022-08-19T05:06:03;11.63;;;2.72;;
29184;SDS011;16233;47.964;-3.842;2022-08-19T05:10:10;17.77;;;3.78;;
29184;SDS011;16233;47.964;-3.842;2022-08-19T05:12:11;13.02;;;3.60;;
29184;SDS011;16233;47.964;-3.842;2022-08-19T05:14:12;13.10;;;3.22;;
29184;SDS011;16233;47.964;-3.842;2022-08-19T05:16:13;21.80;;;3.58;;
29184;SDS011;16233;47.964;-3.842;2022-08-19T05:18:16;10.48;;;3.30;;
29184;SDS011;16233;47.964;-3.842;2022-08-19T05:20:17;10.68;;;3.38;;
29184;SDS011;16233;47.964;-3.842;2022-08-19T05:22:18;7.88;;;3.30;;
29184;SDS011;16233;47.964;-3.842;2022-08-19T05:24:20;19.63;;;4.88;;
29184;SDS011;16233;47.964;-3.842;2022-08-19T05:26:24;19.88;;;5.10;;
29184;SDS011;16233;47.964;-3.842;2022-08-19T05:28:25;9.80;;;3.20;;
29184;SDS011;16233;47.964;-3.842;2022-08-19T05:30:26;20.25;;;4.03;;
29184;SDS011;16233;47.964;-3.842;2022-08-19T05:32:27;15.57;;;4.38;;
29184;SDS011;16233;47.964;-3.842;2022-08-19T05:34:28;16.08;;;4.25;;
29184;SDS011;16233;47.964;-3.842;2022-08-19T05:36:34;12.18;;;4.32;;
29184;SDS011;16233;47.964;-3.842;2022-08-19T05:38:36;12.88;;;4.00;;
29184;SDS011;16233;47.964;-3.842;2022-08-19T05:40:37;16.40;;;3.83;;
29184;SDS011;16233;47.964;-3.842;2022-08-19T05:42:40;12.57;;;3.75;;
29184;SDS011;16233;47.964;-3.842;2022-08-19T05:44:42;14.43;;;3.65;;
29184;SDS011;16233;47.964;-3.842;2022-08-19T05:46:44;9.88;;;3.38;;
29184;SDS011;16233;47.964;-3.842;2022-08-19T05:48:45;18.20;;;4.07;;
29184;SDS011;16233;47.964;-3.842;2022-08-19T05:50:46;13.45;;;4.88;;
29184;SDS011;16233;47.964;-3.842;2022-08-19T05:52:47;15.80;;;3.92;;
29184;SDS011;16233;47.964;-3.842;2022-08-19T05:54:48;18.25;;;4.50;;
29184;SDS011;16233;47.964;-3.842;2022-08-19T05:56:50;12.18;;;4.03;;
29184;SDS011;16233;47.964;-3.842;2022-08-19T05:58:53;12.98;;;3.85;;
29184;SDS011;16233;47.964;-3.842;2022-08-19T06:00:54;13.07;;;4.00;;
29184;SDS011;16233;47.964;-3.842;2022-08-19T06:02:55;14.43;;;3.58;;
29184;SDS011;16233;47.964;-3.842;2022-08-19T06:04:56;9.30;;;3.30;;
29184;SDS011;16233;47.964;-3.842;2022-08-19T06:06:57;17.58;;;3.42;;
29184;SDS011;16233;47.964;-3.842;2022-08-19T06:08:58;15.90;;;3.70;;
29184;SDS011;16233;47.964;-3.842;2022-08-19T06:11:11;7.35;;;2.75;;
29184;SDS011;16233;47.964;-3.842;2022-08-19T06:13:15;9.50;;;3.25;;
29184;SDS011;16233;47.964;-3.842;2022-08-19T06:15:17;10.48;;;3.20;;
29184;SDS011;16233;47.964;-3.842;2022-08-19T06:17:18;10.13;;;2.70;;
29184;SDS011;16233;47.964;-3.842;2022-08-19T06:19:20;8.50;;;2.75;;
29184;SDS011;16233;47.964;-3.842;2022-08-19T06:21:22;11.30;;;4.63;;
29184;SDS011;16233;47.964;-3.842;2022-08-19T06:23:25;6.65;;;3.53;;
29184;SDS011;16233;47.964;-3.842;2022-08-19T06:25:26;10.02;;;3.03;;
29184;SDS011;16233;47.964;-3.842;2022-08-19T06:27:27;12.48;;;2.97;;
29184;SDS011;16233;47.964;-3.842;2022-08-19T06:29:28;7.95;;;3.10;;
29184;SDS011;16233;47.964;-3.842;2022-08-19T06:31:30;7.82;;;2.92;;
29184;SDS011;16233;47.964;-3.842;2022-08-19T06:33:32;7.60;;;2.80;;
29184;SDS011;16233;47.964;-3.842;2022-08-19T06:35:37;12.98;;;2.90;;
29184;SDS011;16233;47.964;-3.842;2022-08-19T06:37:38;10.82;;;2.95;;
29184;SDS011;16233;47.964;-3.842;2022-08-19T06:39:41;6.28;;;3.28;;
29184;SDS011;16233;47.964;-3.842;2022-08-19T06:41:44;4.95;;;2.63;;
29184;SDS011;16233;47.964;-3.842;2022-08-19T06:43:46;11.30;;;2.28;;
29184;SDS011;16233;47.964;-3.842;2022-08-19T06:45:47;9.23;;;2.80;;
29184;SDS011;16233;47.964;-3.842;2022-08-19T06:47:49;5.10;;;2.72;;
29184;SDS011;16233;47.964;-3.842;2022-08-19T06:49:52;12.50;;;2.92;;
29184;SDS011;16233;47.964;-3.842;2022-08-19T06:51:54;10.05;;;5.25;;
29184;SDS011;16233;47.964;-3.842;2022-08-19T06:53:55;12.40;;;2.47;;
29184;SDS011;16233;47.964;-3.842;2022-08-19T06:55:56;14.10;;;3.55;;
29184;SDS011;16233;47.964;-3.842;2022-08-19T06:57:57;9.07;;;2.83;;
29184;SDS011;16233;47.964;-3.842;2022-08-19T07:00:01;13.90;;;2.95;;
29184;SDS011;16233;47.964;-3.842;2022-08-19T07:02:03;12.65;;;3.15;;
29184;SDS011;16233;47.964;-3.842;2022-08-19T07:04:07;14.43;;;2.97;;
29184;SDS011;16233;47.964;-3.842;2022-08-19T07:06:09;9.77;;;3.00;;
29184;SDS011;16233;47.964;-3.842;2022-08-19T07:08:12;8.23;;;3.00;;
29184;SDS011;16233;47.964;-3.842;2022-08-19T07:10:13;10.93;;;3.25;;
29184;SDS011;16233;47.964;-3.842;2022-08-19T07:12:14;9.23;;;3.42;;
29184;SDS011;16233;47.964;-3.842;2022-08-19T07:14:15;13.27;;;3.25;;
29184;SDS011;16233;47.964;-3.842;2022-08-19T07:16:19;7.15;;;3.00;;
29184;SDS011;16233;47.964;-3.842;2022-08-19T07:18:20;10.77;;;2.75;;
29184;SDS011;16233;47.964;-3.842;2022-08-19T07:20:22;8.15;;;2.20;;
29184;SDS011;16233;47.964;-3.842;2022-08-19T07:22:23;9.90;;;3.17;;
29184;SDS011;16233;47.964;-3.842;2022-08-19T07:24:25;13.55;;;3.80;;
29184;SDS011;16233;47.964;-3.842;2022-08-19T07:26:28;8.98;;;3.40;;
29184;SDS011;16233;47.964;-3.842;2022-08-19T07:28:30;9.80;;;2.60;;
29184;SDS011;16233;47.964;-3.842;2022-08-19T07:30:31;10.38;;;4.32;;
29184;SDS011;16233;47.964;-3.842;2022-08-19T07:32:32;7.18;;;2.30;;
29184;SDS011;16233;47.964;-3.842;2022-08-19T07:34:33;9.48;;;3.17;;
29184;SDS011;16233;47.964;-3.842;2022-08-19T07:36:37;13.65;;;2.47;;
29184;SDS011;16233;47.964;-3.842;2022-08-19T07:38:42;10.43;;;2.72;;
29184;SDS011;16233;47.964;-3.842;2022-08-19T07:40:50;10.15;;;2.47;;
29184;SDS011;16233;47.964;-3.842;2022-08-19T07:42:51;6.68;;;2.13;;
29184;SDS011;16233;47.964;-3.842;2022-08-19T07:44:52;11.80;;;2.58;;
29184;SDS011;16233;47.964;-3.842;2022-08-19T07:46:54;8.13;;;2.55;;
29184;SDS011;16233;47.964;-3.842;2022-08-19T07:48:58;15.35;;;2.85;;
29184;SDS011;16233;47.964;-3.842;2022-08-19T07:51:01;8.93;;;2.08;;
29184;SDS011;16233;47.964;-3.842;2022-08-19T07:53:05;9.63;;;2.22;;
29184;SDS011;16233;47.964;-3.842;2022-08-19T07:55:07;6.38;;;2.30;;
29184;SDS011;16233;47.964;-3.842;2022-08-19T07:57:10;5.47;;;2.53;;
29184;SDS011;16233;47.964;-3.842;2022-08-19T07:59:11;11.52;;;2.60;;
29184;SDS011;16233;47.964;-3.842;2022-08-19T08:01:15;9.15;;;2.17;;
29184;SDS011;16233;47.964;-3.842;2022-08-19T08:03:19;6.85;;;2.30;;
29184;SDS011;16233;47.964;-3.842;2022-08-19T08:05:22;5.93;;;1.80;;
29184;SDS011;16233;47.964;-3.842;2022-08-19T08:07:23;9.60;;;2.22;;
29184;SDS011;16233;47.964;-3.842;2022-08-19T08:09:26;6.53;;;2.13;;
29184;SDS011;16233;47.964;-3.842;2022-08-19T08:11:30;10.10;;;2.78;;
29184;SDS011;16233;47.964;-3.842;2022-08-19T08:13:31;5.97;;;2.05;;
29184;SDS011;16233;47.964;-3.842;2022-08-19T08:15:32;11.18;;;2.60;;
29184;SDS011;16233;47.964;-3.842;2022-08-19T08:17:33;10.20;;;2.22;;
29184;SDS011;16233;47.964;-3.842;2022-08-19T08:19:34;6.93;;;2.03;;
29184;SDS011;16233;47.964;-3.842;2022-08-19T08:21:36;6.57;;;2.40;;
29184;SDS011;16233;47.964;-3.842;2022-08-19T08:23:37;8.52;;;1.75;;
29184;SDS011;16233;47.964;-3.842;2022-08-19T08:25:40;11.15;;;2.30;;
29184;SDS011;16233;47.964;-3.842;2022-08-19T08:27:41;15.65;;;2.60;;
29184;SDS011;16233;47.964;-3.842;2022-08-19T08:29:43;9.57;;;2.20;;
29184;SDS011;16233;47.964;-3.842;2022-08-19T08:31:44;9.20;;;2.17;;
29184;SDS011;16233;47.964;-3.842;2022-08-19T08:33:47;5.90;;;1.90;;
29184;SDS011;16233;47.964;-3.842;2022-08-19T08:35:48;11.60;;;2.28;;
29184;SDS011;16233;47.964;-3.842;2022-08-19T08:37:51;7.70;;;2.25;;
29184;SDS011;16233;47.964;-3.842;2022-08-19T08:39:54;7.15;;;1.95;;
29184;SDS011;16233;47.964;-3.842;2022-08-19T08:41:57;3.00;;;1.48;;
29184;SDS011;16233;47.964;-3.842;2022-08-19T08:44:11;7.78;;;1.85;;
29184;SDS011;16233;47.964;-3.842;2022-08-19T08:46:17;1.63;;;1.25;;
29184;SDS011;16233;47.964;-3.842;2022-08-19T08:48:23;3.65;;;1.40;;
29184;SDS011;16233;47.964;-3.842;2022-08-19T08:50:32;3.17;;;1.40;;
29184;SDS011;16233;47.964;-3.842;2022-08-19T08:52:41;5.72;;;1.90;;
29184;SDS011;16233;47.964;-3.842;2022-08-19T08:54:46;5.07;;;2.38;;
29184;SDS011;16233;47.964;-3.842;2022-08-19T08:56:50;6.00;;;1.50;;
29184;SDS011;16233;47.964;-3.842;2022-08-19T08:58:56;6.50;;;1.60;;
29184;SDS011;16233;47.964;-3.842;2022-08-19T09:01:01;4.95;;;2.08;;
29184;SDS011;16233;47.964;-3.842;2022-08-19T09:03:03;5.00;;;1.20;;
29184;SDS011;16233;47.964;-3.842;2022-08-19T09:05:09;3.80;;;1.50;;
29184;SDS011;16233;47.964;-3.842;2022-08-19T09:07:27;6.47;;;1.80;;
29184;SDS011;16233;47.964;-3.842;2022-08-19T09:09:40;6.22;;;1.60;;
29184;SDS011;16233;47.964;-3.842;2022-08-19T09:11:48;4.47;;;1.60;;
29184;SDS011;16233;47.964;-3.842;2022-08-19T09:14:01;5.07;;;1.73;;
29184;SDS011;16233;47.964;-3.842;2022-08-19T09:16:10;4.15;;;1.42;;
29184;SDS011;16233;47.964;-3.842;2022-08-19T09:18:14;7.70;;;2.38;;
29184;SDS011;16233;47.964;-3.842;2022-08-19T09:20:17;2.50;;;1.13;;
29184;SDS011;16233;47.964;-3.842;2022-08-19T09:22:20;5.88;;;1.25;;
29184;SDS011;16233;47.964;-3.842;2022-08-19T09:24:21;1.00;;;0.90;;
29184;SDS011;16233;47.964;-3.842;2022-08-19T09:26:23;4.03;;;1.00;;
29184;SDS011;16233;47.964;-3.842;2022-08-19T09:28:24;3.83;;;1.35;;
29184;SDS011;16233;47.964;-3.842;2022-08-19T09:30:27;1.65;;;1.00;;
29184;SDS011;16233;47.964;-3.842;2022-08-19T09:32:30;1.77;;;1.40;;
29184;SDS011;16233;47.964;-3.842;2022-08-19T09:34:31;0.90;;;0.90;;
29184;SDS011;16233;47.964;-3.842;2022-08-19T09:36:32;3.53;;;1.23;;
29184;SDS011;16233;47.964;-3.842;2022-08-19T09:38:33;2.45;;;1.15;;
29184;SDS011;16233;47.964;-3.842;2022-08-19T09:40:35;3.72;;;2.15;;
29184;SDS011;16233;47.964;-3.842;2022-08-19T09:42:36;1.10;;;0.90;;
29184;SDS011;16233;47.964;-3.842;2022-08-19T09:44:37;4.28;;;1.23;;
29184;SDS011;16233;47.964;-3.842;2022-08-19T09:46:40;1.30;;;0.90;;
29184;SDS011;16233;47.964;-3.842;2022-08-19T09:48:41;2.35;;;1.25;;
29184;SDS011;16233;47.964;-3.842;2022-08-19T09:50:42;1.80;;;1.05;;
29184;SDS011;16233;47.964;-3.842;2022-08-19T09:52:43;4.05;;;1.10;;
29184;SDS011;16233;47.964;-3.842;2022-08-19T09:54:44;0.93;;;0.88;;
29184;SDS011;16233;47.964;-3.842;2022-08-19T09:56:45;2.10;;;1.00;;
29184;SDS011;16233;47.964;-3.842;2022-08-19T09:58:46;2.65;;;1.00;;
29184;SDS011;16233;47.964;-3.842;2022-08-19T10:00:48;2.03;;;1.00;;
29184;SDS011;16233;47.964;-3.842;2022-08-19T10:02:50;3.83;;;1.02;;
29184;SDS011;16233;47.964;-3.842;2022-08-19T10:04:51;1.58;;;1.15;;
29184;SDS011;16233;47.964;-3.842;2022-08-19T10:06:55;2.67;;;1.50;;
29184;SDS011;16233;47.964;-3.842;2022-08-19T10:08:57;3.38;;;1.10;;
29184;SDS011;16233;47.964;-3.842;2022-08-19T10:10:58;0.93;;;0.90;;
29184;SDS011;16233;47.964;-3.842;2022-08-19T10:12:59;1.70;;;1.60;;
29184;SDS011;16233;47.964;-3.842;2022-08-19T10:15:00;1.67;;;1.00;;
29184;SDS011;16233;47.964;-3.842;2022-08-19T10:17:01;1.27;;;1.05;;
29184;SDS011;16233;47.964;-3.842;2022-08-19T10:19:04;1.08;;;1.08;;
29184;SDS011;16233;47.964;-3.842;2022-08-19T10:21:06;2.47;;;1.05;;
29184;SDS011;16233;47.964;-3.842;2022-08-19T10:23:09;1.38;;;1.10;;
29184;SDS011;16233;47.964;-3.842;2022-08-19T10:25:10;3.15;;;1.33;;
29184;SDS011;16233;47.964;-3.842;2022-08-19T10:27:12;1.38;;;1.17;;
29184;SDS011;16233;47.964;-3.842;2022-08-19T10:29:13;1.30;;;1.15;;
29184;SDS011;16233;47.964;-3.842;2022-08-19T10:31:14;3.45;;;1.35;;
29184;SDS011;16233;47.964;-3.842;2022-08-19T10:33:16;1.38;;;1.05;;
29184;SDS011;16233;47.964;-3.842;2022-08-19T10:35:19;1.48;;;0.98;;
29184;SDS011;16233;47.964;-3.842;2022-08-19T10:37:20;2.45;;;0.90;;
29184;SDS011;16233;47.964;-3.842;2022-08-19T10:39:21;1.25;;;0.90;;
29184;SDS011;16233;47.964;-3.842;2022-08-19T10:41:24;0.88;;;0.88;;
29184;SDS011;16233;47.964;-3.842;2022-08-19T10:43:27;0.95;;;0.90;;
29184;SDS011;16233;47.964;-3.842;2022-08-19T10:45:28;4.57;;;0.93;;
29184;SDS011;16233;47.964;-3.842;2022-08-19T10:47:29;2.50;;;0.98;;
29184;SDS011;16233;47.964;-3.842;2022-08-19T10:49:30;1.92;;;1.23;;
29184;SDS011;16233;47.964;-3.842;2022-08-19T10:51:32;2.13;;;1.17;;
29184;SDS011;16233;47.964;-3.842;2022-08-19T10:53:33;2.08;;;0.73;;
29184;SDS011;16233;47.964;-3.842;2022-08-19T10:55:35;0.90;;;0.90;;
29184;SDS011;16233;47.964;-3.842;2022-08-19T10:57:36;1.77;;;0.60;;
29184;SDS011;16233;47.964;-3.842;2022-08-19T10:59:37;5.35;;;0.80;;
29184;SDS011;16233;47.964;-3.842;2022-08-19T11:01:41;1.65;;;0.68;;
29184;SDS011;16233;47.964;-3.842;2022-08-19T11:03:43;4.18;;;0.80;;
29184;SDS011;16233;47.964;-3.842;2022-08-19T11:05:44;0.93;;;0.68;;
29184;SDS011;16233;47.964;-3.842;2022-08-19T11:07:46;0.70;;;0.70;;
29184;SDS011;16233;47.964;-3.842;2022-08-19T11:09:47;0.60;;;0.60;;
29184;SDS011;16233;47.964;-3.842;2022-08-19T11:11:48;0.60;;;0.60;;
29184;SDS011;16233;47.964;-3.842;2022-08-19T11:13:50;2.15;;;0.70;;
29184;SDS011;16233;47.964;-3.842;2022-08-19T11:15:58;0.75;;;0.63;;
29184;SDS011;16233;47.964;-3.842;2022-08-19T11:18:00;0.70;;;0.70;;
29184;SDS011;16233;47.964;-3.842;2022-08-19T11:20:03;6.03;;;0.93;;
29184;SDS011;16233;47.964;-3.842;2022-08-19T11:22:07;0.85;;;0.85;;
29184;SDS011;16233;47.964;-3.842;2022-08-19T11:24:11;0.88;;;0.88;;
29184;SDS011;16233;47.964;-3.842;2022-08-19T11:26:13;1.17;;;0.80;;
29184;SDS011;16233;47.964;-3.842;2022-08-19T11:28:15;1.08;;;1.00;;
29184;SDS011;16233;47.964;-3.842;2022-08-19T11:30:16;0.80;;;0.80;;
29184;SDS011;16233;47.964;-3.842;2022-08-19T11:32:17;0.70;;;0.70;;
29184;SDS011;16233;47.964;-3.842;2022-08-19T11:34:19;1.55;;;0.70;;
29184;SDS011;16233;47.964;-3.842;2022-08-19T11:36:22;1.23;;;0.80;;
29184;SDS011;16233;47.964;-3.842;2022-08-19T11:38:23;1.50;;;0.80;;
29184;SDS011;16233;47.964;-3.842;2022-08-19T11:40:25;0.70;;;0.70;;
29184;SDS011;16233;47.964;-3.842;2022-08-19T11:42:26;11.43;;;0.80;;
29184;SDS011;16233;47.964;-3.842;2022-08-19T11:44:27;0.70;;;0.70;;
29184;SDS011;16233;47.964;-3.842;2022-08-19T11:46:29;2.58;;;0.80;;
29184;SDS011;16233;47.964;-3.842;2022-08-19T11:48:30;0.63;;;0.63;;
29184;SDS011;16233;47.964;-3.842;2022-08-19T11:50:31;0.70;;;0.70;;
29184;SDS011;16233;47.964;-3.842;2022-08-19T11:52:33;2.30;;;0.95;;
29184;SDS011;16233;47.964;-3.842;2022-08-19T11:54:34;10.45;;;0.70;;
29184;SDS011;16233;47.964;-3.842;2022-08-19T11:56:37;0.68;;;0.68;;
29184;SDS011;16233;47.964;-3.842;2022-08-19T11:58:38;0.60;;;0.60;;
29184;SDS011;16233;47.964;-3.842;2022-08-19T12:00:40;0.95;;;0.82;;
29184;SDS011;16233;47.964;-3.842;2022-08-19T12:02:41;0.80;;;0.80;;
29184;SDS011;16233;47.964;-3.842;2022-08-19T12:04:43;3.20;;;1.10;;